NVVK weather

Lenakel Airport
Lenakel, Tafea, Vanuatu

Public forecast

Using degrees Celsius for public forecast. Weather courtesy of forecast.io.

Closest aviation weather report (METAR) to Lenakel Airport

Closest report is Tanna Airport, 4.3 nm (7.9 km) NNW. Retrieved 2019/12/13 09:00 UTC (1 hour ago):

NVVW 130900Z AUTO 09007KT //// // NCD 23/17 Q1011

Closest aviation forecast (TAF) to Lenakel Airport

Closest forecast is Tanna Airport, 4.3 nm (7.9 km) NNW. Retrieved 2019/12/13 06:30 UTC (4 hours ago):

TAF NVVW 130430Z 1306/1406 06004KT 9999 FEW020 PROB30 INTER 1306/1312 9000 -SHRA BKN018